createdAt,value
2023-04-18T00:00:06.221Z,10.78
2023-04-18T00:01:06.397Z,10.80
2023-04-18T00:02:06.586Z,10.79
2023-04-18T00:03:06.913Z,10.78
2023-04-18T00:04:07.141Z,10.78
2023-04-18T00:05:07.142Z,10.79
2023-04-18T00:06:07.261Z,10.79
2023-04-18T00:07:07.447Z,10.77
2023-04-18T00:08:07.628Z,10.76
2023-04-18T00:09:07.883Z,10.74
2023-04-18T00:10:08.053Z,10.73
2023-04-18T00:11:08.130Z,10.74
2023-04-18T00:12:08.297Z,10.73
2023-04-18T00:13:08.472Z,10.75
2023-04-18T00:14:08.672Z,10.76
2023-04-18T00:15:08.833Z,10.77
2023-04-18T00:16:09.018Z,10.77
2023-04-18T00:17:09.256Z,10.75
2023-04-18T00:18:09.508Z,10.74
2023-04-18T00:19:09.598Z,10.72
2023-04-18T00:20:09.783Z,10.73
2023-04-18T00:21:10.011Z,10.72
2023-04-18T00:22:10.182Z,10.70
2023-04-18T00:23:12.158Z,10.67
2023-04-18T00:24:10.360Z,10.67
2023-04-18T00:25:10.281Z,10.66
2023-04-18T00:26:10.219Z,10.67
2023-04-18T00:27:10.145Z,10.67
2023-04-18T00:28:10.076Z,10.69
2023-04-18T00:29:09.999Z,10.70
2023-04-18T00:30:09.939Z,10.70
2023-04-18T00:31:09.963Z,10.70
2023-04-18T00:32:09.792Z,10.69
2023-04-18T00:33:10.720Z,10.67
2023-04-18T00:34:09.633Z,10.67
2023-04-18T00:35:09.563Z,10.65
2023-04-18T00:36:09.489Z,10.65
2023-04-18T00:37:09.415Z,10.65
2023-04-18T00:38:09.342Z,10.67
2023-04-18T00:39:09.261Z,10.67
2023-04-18T00:40:09.187Z,10.66
2023-04-18T00:41:09.132Z,10.67
2023-04-18T00:42:09.211Z,10.66
2023-04-18T00:43:09.361Z,10.65
2023-04-18T00:44:09.587Z,10.65
2023-04-18T00:45:09.671Z,10.68
2023-04-18T00:46:09.931Z,10.69
2023-04-18T00:47:10.100Z,10.69
2023-04-18T00:48:10.304Z,10.68
2023-04-18T00:49:10.517Z,10.67
2023-04-18T00:50:10.734Z,10.67
2023-04-18T00:51:10.846Z,10.67
2023-04-18T00:52:11.036Z,10.66
2023-04-18T00:53:11.342Z,10.66
2023-04-18T00:54:11.696Z,10.66
2023-04-18T00:55:11.497Z,10.66
2023-04-18T00:56:11.510Z,10.67
2023-04-18T00:57:11.490Z,10.67
2023-04-18T00:58:11.479Z,10.64
2023-04-18T00:59:11.487Z,10.60
2023-04-18T01:00:11.487Z,10.60
2023-04-18T01:01:11.514Z,10.60
2023-04-18T01:02:11.490Z,10.62
2023-04-18T01:03:11.636Z,10.62
2023-04-18T01:04:11.695Z,10.62
2023-04-18T01:05:11.521Z,10.62
2023-04-18T01:06:11.452Z,10.63
2023-04-18T01:07:11.454Z,10.63
2023-04-18T01:08:11.459Z,10.61
2023-04-18T01:09:11.420Z,10.61
2023-04-18T01:10:11.415Z,10.62
2023-04-18T01:11:11.422Z,10.62
2023-04-18T01:12:11.411Z,10.63
2023-04-18T01:13:11.356Z,10.63
2023-04-18T01:14:11.576Z,10.63
2023-04-18T01:15:11.343Z,10.63
2023-04-18T01:16:11.389Z,10.63
2023-04-18T01:17:11.336Z,10.63
2023-04-18T01:18:11.335Z,10.63
2023-04-18T01:19:11.337Z,10.65
2023-04-18T01:20:11.393Z,10.68
2023-04-18T01:21:11.511Z,10.69
2023-04-18T01:22:11.731Z,10.67
2023-04-18T01:23:11.944Z,10.70
2023-04-18T01:24:12.473Z,10.70
2023-04-18T01:25:12.162Z,10.71
2023-04-18T01:26:12.162Z,10.70
2023-04-18T01:27:12.151Z,10.69
2023-04-18T01:28:12.159Z,10.69
2023-04-18T01:29:12.185Z,10.70
2023-04-18T01:30:12.153Z,10.68
2023-04-18T01:31:12.242Z,10.68
2023-04-18T01:32:12.156Z,10.67
2023-04-18T01:33:12.149Z,10.68
2023-04-18T01:34:12.355Z,10.65
2023-04-18T01:35:12.160Z,10.63
2023-04-18T01:36:12.164Z,10.61
2023-04-18T01:37:12.169Z,10.61
2023-04-18T01:38:12.175Z,10.61
2023-04-18T01:39:12.172Z,10.62
2023-04-18T01:40:12.160Z,10.64
2023-04-18T01:41:12.171Z,10.63
2023-04-18T01:42:12.168Z,10.63
2023-04-18T01:43:12.176Z,10.62
2023-04-18T01:44:12.321Z,10.63
2023-04-18T01:45:12.197Z,10.62
2023-04-18T01:46:12.202Z,10.61
2023-04-18T01:47:12.179Z,10.63
2023-04-18T01:48:12.185Z,10.63
2023-04-18T01:49:12.178Z,10.64
2023-04-18T01:50:12.865Z,10.66
2023-04-18T01:51:12.211Z,10.65
2023-04-18T01:52:12.193Z,10.62
2023-04-18T01:53:12.196Z,10.62
2023-04-18T01:54:12.339Z,10.62
2023-04-18T01:55:12.200Z,10.63
2023-04-18T01:56:12.176Z,10.63
2023-04-18T01:57:12.162Z,10.64
2023-04-18T01:58:12.172Z,10.64
2023-04-18T01:59:12.176Z,10.63
2023-04-18T02:00:12.176Z,10.63
2023-04-18T02:01:12.218Z,10.62
2023-04-18T02:02:12.206Z,10.63
2023-04-18T02:03:12.185Z,10.62
2023-04-18T02:04:12.333Z,10.61
2023-04-18T02:05:12.143Z,10.62
2023-04-18T02:06:12.146Z,10.62
2023-04-18T02:07:12.147Z,10.61
2023-04-18T02:08:12.151Z,10.61
2023-04-18T02:09:12.136Z,10.60
2023-04-18T02:10:12.145Z,10.59
2023-04-18T02:11:12.124Z,10.59
2023-04-18T02:12:12.105Z,10.60
2023-04-18T02:13:12.101Z,10.61
2023-04-18T02:14:12.335Z,10.62
2023-04-18T02:15:12.073Z,10.61
2023-04-18T02:16:12.109Z,10.61
2023-04-18T02:17:12.096Z,10.60
2023-04-18T02:18:12.062Z,10.61
2023-04-18T02:19:12.048Z,10.63
2023-04-18T02:20:12.054Z,10.62
2023-04-18T02:21:12.038Z,10.62
2023-04-18T02:22:12.034Z,10.62
2023-04-18T02:23:12.020Z,10.61
2023-04-18T02:24:12.223Z,10.61
2023-04-18T02:25:12.010Z,10.61
2023-04-18T02:26:11.976Z,10.62
2023-04-18T02:27:11.979Z,10.62
2023-04-18T02:28:12.014Z,10.63
2023-04-18T02:29:12.221Z,10.62
2023-04-18T02:30:12.426Z,10.61
2023-04-18T02:31:12.646Z,10.62
2023-04-18T02:32:12.880Z,10.62
2023-04-18T02:33:13.048Z,10.62
2023-04-18T02:34:13.472Z,10.64
2023-04-18T02:35:13.215Z,10.64
2023-04-18T02:36:13.203Z,10.63
2023-04-18T02:37:13.204Z,10.63
2023-04-18T02:38:13.210Z,10.64
2023-04-18T02:39:13.189Z,10.64
2023-04-18T02:40:13.179Z,10.65
2023-04-18T02:41:13.182Z,10.64
2023-04-18T02:42:13.154Z,10.65
2023-04-18T02:43:13.141Z,10.66
2023-04-18T02:44:13.250Z,10.68
2023-04-18T02:45:13.118Z,10.70
2023-04-18T02:46:13.138Z,10.71
2023-04-18T02:47:13.124Z,10.71
2023-04-18T02:48:13.144Z,10.70
2023-04-18T02:49:13.125Z,10.71
2023-04-18T02:50:13.120Z,10.71
2023-04-18T02:51:13.100Z,10.70
2023-04-18T02:52:13.173Z,10.70
2023-04-18T02:53:13.108Z,10.69
2023-04-18T02:54:13.370Z,10.70
2023-04-18T02:55:13.116Z,10.68
2023-04-18T02:56:13.099Z,10.67
2023-04-18T02:57:13.094Z,10.68
2023-04-18T02:58:13.085Z,10.65
2023-04-18T02:59:13.087Z,10.65
2023-04-18T03:00:13.081Z,10.65
2023-04-18T03:01:13.099Z,10.65
2023-04-18T03:02:13.095Z,10.65
2023-04-18T03:03:13.132Z,10.64
2023-04-18T03:04:13.395Z,10.64
2023-04-18T03:05:13.083Z,10.63
2023-04-18T03:06:13.053Z,10.62
2023-04-18T03:07:13.042Z,10.62
2023-04-18T03:08:13.072Z,10.61
2023-04-18T03:09:13.057Z,10.56
2023-04-18T03:10:13.071Z,10.54
2023-04-18T03:11:13.052Z,10.55
2023-04-18T03:12:13.029Z,10.56
2023-04-18T03:13:13.027Z,10.56
2023-04-18T03:14:13.195Z,10.58
2023-04-18T03:15:13.032Z,10.57
2023-04-18T03:16:13.052Z,10.58
2023-04-18T03:17:13.017Z,10.58
2023-04-18T03:18:13.067Z,10.59
2023-04-18T03:19:13.018Z,10.59
2023-04-18T03:20:13.024Z,10.60
2023-04-18T03:21:13.021Z,10.61
2023-04-18T03:22:13.003Z,10.62
2023-04-18T03:23:13.016Z,10.61
2023-04-18T03:24:13.245Z,10.61
2023-04-18T03:25:13.042Z,10.59
2023-04-18T03:26:13.031Z,10.58
2023-04-18T03:27:13.058Z,10.56
2023-04-18T03:28:13.045Z,10.57
2023-04-18T03:29:13.025Z,10.56
2023-04-18T03:30:13.038Z,10.59
2023-04-18T03:31:13.041Z,10.59
2023-04-18T03:32:13.012Z,10.54
2023-04-18T03:33:13.020Z,10.51
2023-04-18T03:34:13.241Z,10.49
2023-04-18T03:35:13.031Z,10.49
2023-04-18T03:36:13.021Z,10.51
2023-04-18T03:37:13.033Z,10.51
2023-04-18T03:38:13.028Z,10.50
2023-04-18T03:39:13.038Z,10.46
2023-04-18T03:40:12.998Z,10.45
2023-04-18T03:41:13.192Z,10.45
2023-04-18T03:42:13.335Z,10.45
2023-04-18T03:43:13.474Z,10.46
2023-04-18T03:44:13.861Z,10.47
2023-04-18T03:45:13.921Z,10.47
2023-04-18T03:46:14.117Z,10.46
2023-04-18T03:47:14.211Z,10.47
2023-04-18T03:48:14.432Z,10.47
2023-04-18T03:49:14.653Z,10.46
2023-04-18T03:50:14.785Z,10.46
2023-04-18T03:51:14.910Z,10.46
2023-04-18T03:52:15.048Z,10.44
2023-04-18T03:53:15.248Z,10.44
2023-04-18T03:54:15.767Z,10.45
2023-04-18T03:55:15.467Z,10.45
2023-04-18T03:56:15.468Z,10.44
2023-04-18T03:57:15.461Z,10.44
2023-04-18T03:58:15.451Z,10.43
2023-04-18T03:59:15.453Z,10.43
2023-04-18T04:00:15.439Z,10.43
2023-04-18T04:01:15.426Z,10.45
2023-04-18T04:02:15.511Z,10.45
2023-04-18T04:03:15.481Z,10.44
2023-04-18T04:04:15.806Z,10.44
2023-04-18T04:05:15.391Z,10.45
2023-04-18T04:06:15.361Z,10.46
2023-04-18T04:07:15.373Z,10.46
2023-04-18T04:08:15.366Z,10.47
2023-04-18T04:09:15.370Z,10.47
2023-04-18T04:10:15.373Z,10.48
2023-04-18T04:11:15.349Z,10.48
2023-04-18T04:12:15.351Z,10.48
2023-04-18T04:13:15.354Z,10.46
2023-04-18T04:14:15.534Z,10.46
2023-04-18T04:15:15.353Z,10.45
2023-04-18T04:16:15.375Z,10.46
2023-04-18T04:17:15.354Z,10.47
2023-04-18T04:18:15.352Z,10.46
2023-04-18T04:19:15.338Z,10.47
2023-04-18T04:20:15.347Z,10.46
2023-04-18T04:21:15.328Z,10.46
2023-04-18T04:22:15.328Z,10.45
2023-04-18T04:23:15.333Z,10.45
2023-04-18T04:24:15.653Z,10.47
2023-04-18T04:25:15.330Z,10.45
2023-04-18T04:26:15.305Z,10.44
2023-04-18T04:27:15.315Z,10.43
2023-04-18T04:28:15.304Z,10.44
2023-04-18T04:29:15.304Z,10.45
2023-04-18T04:30:15.306Z,10.43
2023-04-18T04:31:15.303Z,10.39
2023-04-18T04:32:15.294Z,10.37
2023-04-18T04:33:15.295Z,10.36
2023-04-18T04:34:15.447Z,10.37
2023-04-18T04:35:15.307Z,10.39
2023-04-18T04:36:17.332Z,10.40
2023-04-18T04:37:15.281Z,10.39
2023-04-18T04:38:15.216Z,10.39
2023-04-18T04:39:15.108Z,10.36
2023-04-18T04:40:15.060Z,10.35
2023-04-18T04:41:14.987Z,10.35
2023-04-18T04:42:14.915Z,10.33
2023-04-18T04:43:14.840Z,10.30
2023-04-18T04:44:14.948Z,10.28
2023-04-18T04:45:14.706Z,10.24
2023-04-18T04:46:14.709Z,10.23
2023-04-18T04:47:14.577Z,10.23
2023-04-18T04:48:14.514Z,10.23
2023-04-18T04:49:14.434Z,10.24
2023-04-18T04:50:14.374Z,10.22
2023-04-18T04:51:14.304Z,10.19
2023-04-18T04:52:14.245Z,10.18
2023-04-18T04:53:14.182Z,10.17
2023-04-18T04:54:14.495Z,10.17
2023-04-18T04:55:14.165Z,10.19
2023-04-18T04:56:14.068Z,10.17
2023-04-18T04:57:14.110Z,10.15
2023-04-18T04:58:13.934Z,10.17
2023-04-18T04:59:13.863Z,10.19
2023-04-18T05:00:13.812Z,10.18
2023-04-18T05:01:13.801Z,10.20
2023-04-18T05:02:13.735Z,10.22
2023-04-18T05:03:13.662Z,10.24
2023-04-18T05:04:13.879Z,10.26
2023-04-18T05:05:13.466Z,10.25
2023-04-18T05:06:13.408Z,10.26
2023-04-18T05:07:13.347Z,10.27
2023-04-18T05:08:13.283Z,10.26
2023-04-18T05:09:13.256Z,10.23
2023-04-18T05:10:13.178Z,10.22
2023-04-18T05:11:13.118Z,10.19
2023-04-18T05:12:13.060Z,10.16
2023-04-18T05:13:13.029Z,10.14
2023-04-18T05:14:13.275Z,10.11
2023-04-18T05:15:13.010Z,10.07
2023-04-18T05:16:13.028Z,10.07
2023-04-18T05:17:12.954Z,10.07
2023-04-18T05:18:13.110Z,10.06
2023-04-18T05:19:13.273Z,10.03
2023-04-18T05:20:13.456Z,10.02
2023-04-18T05:21:13.756Z,10.03
2023-04-18T05:22:13.902Z,10.07
2023-04-18T05:23:14.072Z,10.08
2023-04-18T05:24:14.591Z,10.11
2023-04-18T05:25:14.225Z,10.12
2023-04-18T05:26:14.217Z,10.11
2023-04-18T05:27:15.049Z,10.11
2023-04-18T05:28:14.215Z,10.14
2023-04-18T05:29:14.221Z,10.16
2023-04-18T05:30:14.244Z,10.15
2023-04-18T05:31:14.259Z,10.15
2023-04-18T05:32:14.224Z,10.15
2023-04-18T05:33:14.177Z,10.15
2023-04-18T05:34:14.483Z,10.14
2023-04-18T05:35:14.511Z,10.12
2023-04-18T05:36:14.668Z,10.14
2023-04-18T05:37:14.827Z,10.14
2023-04-18T05:38:14.767Z,10.16
2023-04-18T05:39:14.705Z,10.16
2023-04-18T05:40:14.629Z,10.17
2023-04-18T05:41:15.434Z,10.19
2023-04-18T05:42:14.500Z,10.22
2023-04-18T05:43:14.435Z,10.24
2023-04-18T05:44:14.389Z,10.25
2023-04-18T05:45:14.949Z,10.27
2023-04-18T05:46:14.268Z,10.27
2023-04-18T05:47:14.174Z,10.29
2023-04-18T05:48:14.104Z,10.28
2023-04-18T05:49:14.043Z,10.27
2023-04-18T05:50:13.974Z,10.28
2023-04-18T05:51:13.910Z,10.31
2023-04-18T05:52:13.838Z,10.30
2023-04-18T05:53:13.916Z,10.33
2023-04-18T05:54:14.365Z,10.32
2023-04-18T05:55:14.117Z,10.34
2023-04-18T05:56:14.128Z,10.33
2023-04-18T05:57:14.139Z,10.35
2023-04-18T05:58:14.116Z,10.36
2023-04-18T05:59:14.113Z,10.35
2023-04-18T06:00:14.232Z,10.34
2023-04-18T06:01:14.111Z,10.31
2023-04-18T06:02:14.142Z,10.31
2023-04-18T06:03:14.155Z,10.33
2023-04-18T06:04:14.540Z,10.34
2023-04-18T06:05:14.401Z,10.34
2023-04-18T06:06:14.116Z,10.34
2023-04-18T06:07:14.104Z,10.32
2023-04-18T06:08:14.083Z,10.34
2023-04-18T06:09:14.248Z,10.32
2023-04-18T06:10:14.425Z,10.33
2023-04-18T06:11:14.686Z,10.35
2023-04-18T06:12:14.911Z,10.35
2023-04-18T06:13:15.094Z,10.32
2023-04-18T06:14:15.677Z,10.33
2023-04-18T06:15:15.333Z,10.38
2023-04-18T06:16:15.374Z,10.41
2023-04-18T06:17:15.313Z,10.46
2023-04-18T06:18:15.319Z,10.48
2023-04-18T06:19:15.308Z,10.53
2023-04-18T06:20:15.318Z,10.59
2023-04-18T06:21:15.301Z,10.63
2023-04-18T06:22:15.300Z,10.66
2023-04-18T06:23:15.302Z,10.66
2023-04-18T06:24:15.695Z,10.70
2023-04-18T06:25:15.293Z,10.72
2023-04-18T06:26:15.371Z,10.76
2023-04-18T06:27:30.274Z,10.79
2023-04-18T06:28:16.856Z,10.80
2023-04-18T06:29:15.144Z,10.82
2023-04-18T06:30:15.118Z,10.81
2023-04-18T06:31:15.116Z,10.77
2023-04-18T06:32:14.952Z,10.70
2023-04-18T06:33:14.974Z,10.66
2023-04-18T06:34:15.799Z,10.69
2023-04-18T06:35:14.734Z,10.74
2023-04-18T06:36:14.667Z,10.77
2023-04-18T06:37:14.601Z,10.79
2023-04-18T06:38:14.589Z,10.81
2023-04-18T06:39:14.582Z,10.83
2023-04-18T06:40:14.579Z,10.88
2023-04-18T06:41:14.581Z,10.92
2023-04-18T06:42:14.607Z,10.94
2023-04-18T06:43:14.568Z,10.96
2023-04-18T06:44:14.698Z,10.94
2023-04-18T06:45:14.530Z,10.92
2023-04-18T06:46:14.541Z,10.96
2023-04-18T06:47:14.564Z,11.00
2023-04-18T06:48:14.776Z,11.01
2023-04-18T06:49:14.968Z,11.01
2023-04-18T06:50:15.167Z,10.98
2023-04-18T06:51:15.373Z,10.97
2023-04-18T06:52:15.593Z,10.93
2023-04-18T06:53:15.814Z,10.97
2023-04-18T06:54:16.196Z,11.00
2023-04-18T06:55:16.149Z,11.07
2023-04-18T06:56:16.339Z,11.13
2023-04-18T06:57:16.553Z,11.18
2023-04-18T06:58:16.903Z,11.20
2023-04-18T06:59:16.993Z,11.20
2023-04-18T07:00:17.279Z,11.13
2023-04-18T07:01:17.502Z,11.09
2023-04-18T07:02:17.770Z,11.02
2023-04-18T07:03:18.264Z,11.05
2023-04-18T07:04:18.451Z,11.09
2023-04-18T07:05:17.885Z,11.17
2023-04-18T07:06:17.850Z,11.28
2023-04-18T07:07:17.799Z,11.37
2023-04-18T07:08:18.450Z,11.46
2023-04-18T07:09:17.996Z,11.53
2023-04-18T07:10:17.947Z,11.61
2023-04-18T07:11:17.930Z,11.66
2023-04-18T07:12:17.891Z,11.71
2023-04-18T07:13:17.829Z,11.78
2023-04-18T07:14:17.785Z,11.84
2023-04-18T07:15:17.750Z,11.85
2023-04-18T07:16:17.704Z,11.90
2023-04-18T07:17:17.669Z,11.96
2023-04-18T07:18:30.288Z,12.02
2023-04-18T07:19:18.511Z,12.08
2023-04-18T07:20:17.413Z,12.13
2023-04-18T07:21:17.777Z,12.19
2023-04-18T07:22:17.641Z,12.20
2023-04-18T07:23:17.879Z,12.16
2023-04-18T07:24:18.085Z,12.11
2023-04-18T07:25:18.311Z,12.14
2023-04-18T07:26:18.533Z,12.20
2023-04-18T07:27:18.701Z,12.31
2023-04-18T07:28:20.364Z,12.37
2023-04-18T07:29:18.880Z,12.28
2023-04-18T07:30:18.693Z,12.29
2023-04-18T07:31:18.630Z,12.35
2023-04-18T07:32:18.608Z,12.36
2023-04-18T07:33:18.447Z,12.43
2023-04-18T07:34:18.345Z,12.39
2023-04-18T07:35:18.376Z,12.46
2023-04-18T07:36:18.186Z,12.59
2023-04-18T07:37:18.069Z,12.71
2023-04-18T07:38:18.960Z,12.83
2023-04-18T07:39:17.893Z,12.95
2023-04-18T07:40:17.896Z,13.06
2023-04-18T07:41:17.696Z,13.13
2023-04-18T07:42:17.589Z,13.12
2023-04-18T07:43:18.398Z,13.14
2023-04-18T07:44:17.435Z,13.08
2023-04-18T07:45:17.313Z,12.97
2023-04-18T07:46:17.287Z,12.87
2023-04-18T07:47:17.160Z,12.76
2023-04-18T07:48:17.082Z,12.75
2023-04-18T07:49:17.048Z,12.77
2023-04-18T07:50:16.870Z,12.80
2023-04-18T07:51:17.020Z,12.83
2023-04-18T07:52:16.766Z,12.84
2023-04-18T07:53:16.967Z,12.84
2023-04-18T07:54:17.130Z,12.86
2023-04-18T07:55:17.392Z,12.89
2023-04-18T07:56:17.572Z,12.92
2023-04-18T07:57:17.675Z,12.93
2023-04-18T07:58:17.958Z,12.95
2023-04-18T07:59:18.055Z,12.97
2023-04-18T08:00:18.325Z,12.96
2023-04-18T08:01:18.519Z,12.89
2023-04-18T08:02:18.727Z,12.85
2023-04-18T08:03:19.097Z,12.85
2023-04-18T08:04:19.027Z,12.86
2023-04-18T08:05:18.786Z,12.84
2023-04-18T08:06:19.005Z,12.87
2023-04-18T08:07:18.770Z,12.91
2023-04-18T08:08:18.861Z,12.93
2023-04-18T08:09:18.965Z,12.97
2023-04-18T08:10:19.190Z,12.98
2023-04-18T08:11:19.377Z,12.96
2023-04-18T08:12:19.513Z,12.95
2023-04-18T08:13:19.769Z,12.94
2023-04-18T08:14:19.953Z,12.95
2023-04-18T08:15:20.116Z,12.92
2023-04-18T08:16:20.373Z,12.92
2023-04-18T08:17:20.536Z,12.92
2023-04-18T08:18:20.705Z,12.89
2023-04-18T08:19:20.859Z,12.90
2023-04-18T08:20:21.047Z,12.91
2023-04-18T08:21:21.324Z,12.89
2023-04-18T08:22:21.621Z,12.94
2023-04-18T08:23:21.630Z,12.96
2023-04-18T08:24:21.830Z,12.99
2023-04-18T08:25:22.008Z,12.99
2023-04-18T08:26:22.203Z,13.01
2023-04-18T08:27:22.375Z,13.02
2023-04-18T08:28:22.556Z,13.01
2023-04-18T08:29:22.726Z,13.00
2023-04-18T08:30:22.903Z,13.00
2023-04-18T08:31:23.933Z,13.02
2023-04-18T08:32:23.117Z,13.08
2023-04-18T08:33:23.048Z,13.11
2023-04-18T08:34:23.014Z,13.13
2023-04-18T08:35:22.997Z,13.18
2023-04-18T08:36:22.947Z,13.22
2023-04-18T08:37:22.868Z,13.24
2023-04-18T08:38:22.835Z,13.27
2023-04-18T08:39:25.188Z,13.28
2023-04-18T08:40:22.845Z,13.27
2023-04-18T08:41:22.805Z,13.24
2023-04-18T08:42:22.776Z,13.22
2023-04-18T08:43:22.740Z,13.26
2023-04-18T08:44:22.709Z,13.42
2023-04-18T08:45:22.645Z,13.54
2023-04-18T08:46:22.785Z,13.69
2023-04-18T08:47:22.545Z,13.84
2023-04-18T08:48:22.509Z,13.88
2023-04-18T08:49:22.399Z,13.89
2023-04-18T08:50:22.355Z,13.95
2023-04-18T08:51:22.466Z,14.05
2023-04-18T08:52:22.711Z,14.15
2023-04-18T08:53:22.845Z,14.22
2023-04-18T08:54:23.838Z,14.24
2023-04-18T08:55:22.918Z,14.01
2023-04-18T08:56:22.877Z,13.88
2023-04-18T08:57:22.807Z,13.81
2023-04-18T08:58:22.719Z,13.82
2023-04-18T08:59:22.646Z,13.87
2023-04-18T09:00:22.593Z,13.90
2023-04-18T09:01:22.583Z,13.97
2023-04-18T09:02:22.567Z,13.95
2023-04-18T09:03:22.521Z,14.02
2023-04-18T09:04:22.694Z,14.02
2023-04-18T09:05:22.779Z,13.97
2023-04-18T09:06:22.961Z,13.91
2023-04-18T09:07:23.122Z,13.94
2023-04-18T09:08:23.270Z,13.95
2023-04-18T09:09:23.405Z,14.00
2023-04-18T09:10:23.634Z,14.10
2023-04-18T09:11:23.778Z,14.21
2023-04-18T09:12:23.913Z,14.28
2023-04-18T09:13:24.621Z,14.28
2023-04-18T09:14:23.975Z,14.34
2023-04-18T09:15:23.881Z,14.43
2023-04-18T09:16:23.768Z,14.58
2023-04-18T09:17:23.748Z,14.67
2023-04-18T09:18:24.487Z,14.78
2023-04-18T09:19:23.361Z,14.89
2023-04-18T09:20:23.236Z,15.00
2023-04-18T09:21:23.100Z,15.02
2023-04-18T09:22:22.955Z,15.02
2023-04-18T09:23:22.819Z,15.07
2023-04-18T09:24:22.713Z,15.16
2023-04-18T09:25:23.401Z,15.21
2023-04-18T09:26:22.638Z,15.27
2023-04-18T09:27:22.401Z,15.34
2023-04-18T09:28:22.985Z,15.15
2023-04-18T09:29:22.533Z,15.00
2023-04-18T09:30:22.369Z,14.90
2023-04-18T09:31:22.345Z,14.96
2023-04-18T09:32:22.200Z,14.94
2023-04-18T09:33:22.063Z,14.79
2023-04-18T09:34:21.975Z,14.85
2023-04-18T09:35:21.867Z,14.87
2023-04-18T09:36:21.775Z,14.85
2023-04-18T09:37:21.705Z,14.91
2023-04-18T09:38:21.659Z,14.96
2023-04-18T09:39:21.572Z,14.99
2023-04-18T09:40:21.498Z,15.04
2023-04-18T09:41:21.741Z,15.04
2023-04-18T09:42:22.031Z,15.05
2023-04-18T09:43:22.124Z,15.07
2023-04-18T09:44:22.267Z,15.12
2023-04-18T09:45:22.433Z,15.12
2023-04-18T09:46:22.688Z,15.16
2023-04-18T09:47:22.806Z,15.20
2023-04-18T09:48:23.002Z,15.19
2023-04-18T09:49:23.141Z,15.11
2023-04-18T09:50:23.367Z,15.13
2023-04-18T09:51:23.503Z,15.18
2023-04-18T09:52:23.833Z,15.19
2023-04-18T09:53:23.843Z,15.15
2023-04-18T09:54:24.098Z,15.04
2023-04-18T09:55:24.427Z,14.83
2023-04-18T09:56:24.433Z,14.87
2023-04-18T09:57:25.322Z,14.95
2023-04-18T09:58:24.155Z,15.01
2023-04-18T09:59:24.070Z,15.09
2023-04-18T10:00:24.064Z,15.30
2023-04-18T10:01:23.799Z,15.39
2023-04-18T10:02:24.608Z,15.18
2023-04-18T10:03:23.607Z,15.04
2023-04-18T10:04:23.452Z,14.97
2023-04-18T10:05:23.282Z,15.18
2023-04-18T10:06:23.130Z,15.21
2023-04-18T10:07:23.009Z,15.21
2023-04-18T10:08:23.494Z,15.25
2023-04-18T10:09:22.734Z,15.23
2023-04-18T10:10:22.662Z,15.29
2023-04-18T10:11:22.471Z,15.39
2023-04-18T10:12:22.393Z,15.44
2023-04-18T10:13:22.321Z,15.50
2023-04-18T10:14:22.241Z,15.63
2023-04-18T10:15:22.234Z,15.78
2023-04-18T10:16:24.041Z,15.87
2023-04-18T10:17:22.049Z,15.95
2023-04-18T10:18:21.897Z,16.05
2023-04-18T10:19:21.749Z,16.15
2023-04-18T10:20:22.534Z,16.31
2023-04-18T10:21:21.531Z,16.31
2023-04-18T10:22:21.477Z,16.35
2023-04-18T10:23:23.025Z,16.17
2023-04-18T10:24:21.252Z,16.07
2023-04-18T10:25:21.168Z,16.05
2023-04-18T10:26:21.990Z,16.07
2023-04-18T10:27:23.017Z,16.07
2023-04-18T10:28:21.063Z,16.09
2023-04-18T10:29:21.077Z,16.08
2023-04-18T10:30:21.543Z,16.08
2023-04-18T10:31:20.733Z,16.04
2023-04-18T10:32:20.613Z,16.00
2023-04-18T10:33:30.309Z,15.90
2023-04-18T10:34:21.549Z,15.87
2023-04-18T10:35:21.017Z,15.82
2023-04-18T10:36:20.105Z,15.73
2023-04-18T10:37:19.998Z,15.72
2023-04-18T10:38:20.015Z,15.72
2023-04-18T10:39:20.144Z,15.70
2023-04-18T10:40:20.317Z,15.60
2023-04-18T10:41:20.480Z,15.55
2023-04-18T10:42:20.642Z,15.55
2023-04-18T10:43:20.775Z,15.56
2023-04-18T10:44:20.923Z,15.60
2023-04-18T10:45:21.069Z,15.60
2023-04-18T10:46:31.782Z,15.63
2023-04-18T10:47:22.230Z,15.68
2023-04-18T10:48:21.029Z,15.70
2023-04-18T10:49:22.349Z,15.74
2023-04-18T10:50:20.695Z,15.75
2023-04-18T10:51:23.019Z,15.70
2023-04-18T10:52:20.570Z,15.67
2023-04-18T10:53:20.436Z,15.64
2023-04-18T10:54:20.434Z,15.55
2023-04-18T10:55:20.595Z,15.64
2023-04-18T10:56:20.693Z,15.68
2023-04-18T10:57:20.906Z,15.72
2023-04-18T10:58:21.039Z,15.79
2023-04-18T10:59:21.174Z,15.78
2023-04-18T11:00:22.213Z,15.73
2023-04-18T11:01:22.299Z,15.70
2023-04-18T11:02:21.148Z,15.79
2023-04-18T11:03:20.987Z,15.81
2023-04-18T11:04:21.048Z,15.85
2023-04-18T11:05:20.622Z,15.89
2023-04-18T11:06:20.509Z,15.86
2023-04-18T11:07:20.360Z,15.88
2023-04-18T11:08:20.229Z,15.89
2023-04-18T11:09:20.094Z,15.90
2023-04-18T11:10:20.115Z,15.87
2023-04-18T11:11:19.821Z,15.83
2023-04-18T11:12:19.663Z,15.80
2023-04-18T11:13:19.525Z,15.75
2023-04-18T11:14:19.396Z,15.65
2023-04-18T11:15:19.349Z,15.54
2023-04-18T11:16:19.557Z,15.55
2023-04-18T11:17:19.725Z,15.56
2023-04-18T11:18:19.896Z,15.51
2023-04-18T11:19:20.049Z,15.49
2023-04-18T11:20:20.240Z,15.46
2023-04-18T11:21:20.429Z,15.47
2023-04-18T11:22:20.547Z,15.53
2023-04-18T11:23:20.771Z,15.61
2023-04-18T11:24:20.976Z,15.65
2023-04-18T11:25:21.179Z,15.62
2023-04-18T11:26:21.293Z,15.56
2023-04-18T11:27:21.487Z,15.62
2023-04-18T11:28:21.669Z,15.62
2023-04-18T11:29:21.777Z,15.65
2023-04-18T11:30:21.930Z,15.73
2023-04-18T11:31:22.184Z,15.76
2023-04-18T11:32:22.418Z,15.73
2023-04-18T11:33:22.484Z,15.75
2023-04-18T11:34:22.613Z,15.85
2023-04-18T11:35:22.771Z,15.96
2023-04-18T11:36:22.964Z,16.09
2023-04-18T11:37:23.089Z,16.14
2023-04-18T11:38:24.318Z,16.19
2023-04-18T11:39:23.068Z,16.25
2023-04-18T11:40:22.913Z,16.28
2023-04-18T11:41:22.748Z,16.30
2023-04-18T11:42:22.595Z,16.20
2023-04-18T11:43:22.461Z,16.17
2023-04-18T11:44:22.330Z,16.15
2023-04-18T11:45:22.183Z,16.12
2023-04-18T11:46:22.096Z,15.98
2023-04-18T11:47:21.946Z,16.00
2023-04-18T11:48:21.789Z,16.08
2023-04-18T11:49:21.664Z,16.18
2023-04-18T11:50:21.531Z,16.31
2023-04-18T11:51:21.360Z,16.49
2023-04-18T11:52:21.497Z,16.67
2023-04-18T11:53:21.593Z,16.81
2023-04-18T11:54:21.748Z,16.94
2023-04-18T11:55:21.919Z,17.08
2023-04-18T11:56:22.040Z,17.17
2023-04-18T11:57:22.270Z,17.27
2023-04-18T11:58:22.365Z,17.33
2023-04-18T11:59:22.518Z,17.27
2023-04-18T12:00:22.658Z,17.30
2023-04-18T12:01:22.809Z,17.28
2023-04-18T12:02:23.069Z,17.13
2023-04-18T12:03:23.226Z,17.21
2023-04-18T12:04:23.650Z,17.34
2023-04-18T12:05:23.371Z,17.44
2023-04-18T12:06:23.165Z,17.44
2023-04-18T12:07:22.850Z,17.51
2023-04-18T12:08:22.715Z,17.58
2023-04-18T12:09:22.555Z,17.65
2023-04-18T12:10:22.467Z,17.66
2023-04-18T12:11:22.322Z,17.72
2023-04-18T12:12:22.219Z,17.79
2023-04-18T12:13:22.084Z,17.93
2023-04-18T12:14:21.929Z,18.08
2023-04-18T12:15:21.813Z,18.27
2023-04-18T12:16:21.719Z,18.39
2023-04-18T12:17:21.595Z,18.50
2023-04-18T12:18:21.641Z,18.59
2023-04-18T12:19:21.793Z,18.68
2023-04-18T12:20:21.897Z,18.76
2023-04-18T12:21:22.098Z,18.75
2023-04-18T12:22:22.205Z,18.60
2023-04-18T12:23:22.329Z,18.43
2023-04-18T12:24:22.563Z,18.51
2023-04-18T12:25:25.172Z,18.52
2023-04-18T12:26:22.492Z,18.51
2023-04-18T12:27:22.308Z,18.77
2023-04-18T12:28:22.127Z,18.68
2023-04-18T12:29:21.951Z,18.81
2023-04-18T12:30:21.761Z,19.00
2023-04-18T12:31:21.616Z,19.14
2023-04-18T12:32:21.398Z,19.30
2023-04-18T12:33:21.176Z,19.33
2023-04-18T12:34:20.988Z,19.39
2023-04-18T12:35:20.802Z,19.43
2023-04-18T12:36:20.597Z,19.50
2023-04-18T12:37:20.416Z,19.62
2023-04-18T12:38:20.233Z,19.74
2023-04-18T12:39:20.018Z,19.83
2023-04-18T12:40:19.811Z,19.91
2023-04-18T12:41:19.631Z,19.91
2023-04-18T12:42:19.452Z,19.98
2023-04-18T12:43:19.304Z,20.09
2023-04-18T12:44:19.258Z,20.17
2023-04-18T12:45:19.370Z,20.28
2023-04-18T12:46:19.572Z,20.38
2023-04-18T12:47:19.662Z,20.52
2023-04-18T12:48:19.757Z,20.65
2023-04-18T12:49:19.849Z,20.66
2023-04-18T12:50:19.985Z,20.73
2023-04-18T12:51:20.177Z,20.66
2023-04-18T12:52:20.408Z,20.57